Time;durP1;ratioP1;P1;durP2;ratioP2;P2;SDS_P1;SDS_P2;PMS_P1;PMS_P2;Temp;Humidity;BMP_temperature;BMP_pressure;BME280_temperature;BME280_humidity;BME280_pressure;Samples;Min_cycle;Max_cycle;Signal;HPM_P1;HPM_P2
2022/07/27 00:00:56;;;;;;;2.15;0.88;;;;;;;26.27;34.31;101845.00;5113095;28;20398;-43
2022/07/27 00:03:24;;;;;;;1.63;0.73;;;;;;;26.20;34.45;101837.00;5113272;28;20184;-49
2022/07/27 00:05:53;;;;;;;1.73;0.77;;;;;;;26.16;34.16;101826.41;5095257;28;20394;-48
2022/07/27 00:08:22;;;;;;;2.47;1.00;;;;;;;26.30;34.18;101840.66;5095387;28;20028;-44
2022/07/27 00:10:52;;;;;;;1.52;0.80;;;;;;;26.37;34.06;101839.91;5113033;28;20102;-46
2022/07/27 00:13:20;;;;;;;3.80;0.93;;;;;;;26.26;34.04;101832.69;5113082;28;20032;-51
2022/07/27 00:15:49;;;;;;;1.95;0.80;;;;;;;26.26;34.00;101825.69;5113810;28;20129;-43
2022/07/27 00:18:17;;;;;;;3.03;1.27;;;;;;;26.32;34.04;101832.78;5112935;28;20031;-44
2022/07/27 00:20:46;;;;;;;2.75;0.70;;;;;;;26.26;34.08;101816.91;5113756;28;20038;-43
2022/07/27 00:23:14;;;;;;;2.70;1.00;;;;;;;26.20;34.25;101826.47;5113580;28;20359;-44
2022/07/27 00:25:43;;;;;;;5.10;1.15;;;;;;;25.94;34.60;101813.72;5113180;28;20031;-43
2022/07/27 00:28:12;;;;;;;2.03;0.90;;;;;;;26.00;34.75;101828.72;5113585;28;20531;-51
2022/07/27 00:30:40;;;;;;;3.05;1.38;;;;;;;25.94;34.70;101819.00;5113634;28;20030;-44
2022/07/27 00:33:09;;;;;;;4.03;1.58;;;;;;;25.82;34.53;101800.34;5113191;28;20024;-43
2022/07/27 00:35:37;;;;;;;2.25;0.90;;;;;;;25.93;34.59;101818.94;5113443;28;20047;-43
2022/07/27 00:38:06;;;;;;;2.35;1.00;;;;;;;25.99;34.68;101828.69;5113314;28;20051;-44
2022/07/27 00:40:35;;;;;;;4.80;1.30;;;;;;;26.08;34.33;101823.59;5113688;28;20378;-48
2022/07/27 00:43:03;;;;;;;1.92;0.73;;;;;;;26.04;34.50;101817.41;5113583;28;20039;-43
2022/07/27 00:45:32;;;;;;;2.17;0.80;;;;;;;25.88;34.58;101784.69;5113235;28;20051;-53
2022/07/27 00:48:01;;;;;;;1.55;0.80;;;;;;;25.94;34.61;101816.34;5112606;28;20081;-43
2022/07/27 00:50:30;;;;;;;1.58;0.80;;;;;;;25.90;34.41;101813.63;5113339;28;20019;-43
2022/07/27 00:52:58;;;;;;;4.20;1.00;;;;;;;25.82;34.79;101802.09;5113382;28;20020;-45
2022/07/27 00:55:27;;;;;;;2.63;1.00;;;;;;;25.77;34.96;101802.03;5113316;28;20028;-53
2022/07/27 00:57:56;;;;;;;2.13;0.90;;;;;;;25.74;34.99;101786.19;5116267;28;20023;-43
2022/07/27 01:00:25;;;;;;;2.30;0.93;;;;;;;25.81;34.69;101803.84;5099080;28;20421;-46
2022/07/27 01:02:53;;;;;;;2.85;0.98;;;;;;;25.70;34.83;101794.88;5116410;28;20039;-45
2022/07/27 01:05:22;;;;;;;3.88;1.05;;;;;;;25.71;34.80;101797.53;5116470;28;20058;-48
2022/07/27 01:07:51;;;;;;;2.38;0.65;;;;;;;25.76;35.02;101802.88;5117348;28;20147;-44
2022/07/27 01:10:19;;;;;;;2.10;0.68;;;;;;;25.76;34.92;101798.50;5098452;28;20485;-43
2022/07/27 01:12:47;;;;;;;2.55;1.20;;;;;;;25.62;34.98;101789.47;5116532;28;20023;-47
2022/07/27 01:15:16;;;;;;;2.38;0.75;;;;;;;25.68;35.21;101794.84;5116230;28;20441;-45
2022/07/27 01:17:45;;;;;;;2.15;0.80;;;;;;;25.66;35.00;101777.25;5116674;28;20031;-44
2022/07/27 01:20:14;;;;;;;2.25;0.80;;;;;;;25.70;34.84;101790.50;5116725;28;20028;-49
2022/07/27 01:22:42;;;;;;;1.95;0.57;;;;;;;25.74;35.12;101786.19;5116965;28;20385;-48
2022/07/27 01:25:11;;;;;;;1.75;0.70;;;;;;;25.84;34.93;101784.63;5098662;28;20020;-51
2022/07/27 01:27:39;;;;;;;1.90;0.90;;;;;;;25.79;34.72;101789.78;5116432;28;20074;-45
2022/07/27 01:30:29;;;;;;;4.40;1.20;;;;;;;25.82;34.48;101773.19;5116484;28;20038;-44
2022/07/27 01:33:01;;;;;;;2.75;1.10;;;;;;;25.77;34.86;101786.25;5090458;28;20115;-48
2022/07/27 01:35:30;;;;;;;1.58;0.50;;;;;;;25.72;34.98;101783.53;5116218;28;20031;-43
2022/07/27 01:37:59;;;;;;;2.67;0.98;;;;;;;25.65;34.79;101767.63;5098311;28;20015;-49
2022/07/27 01:40:27;;;;;;;3.03;0.82;;;;;;;25.70;34.70;101776.47;5098362;28;20019;-47
2022/07/27 01:42:57;;;;;;;2.33;0.70;;;;;;;25.67;35.05;101771.16;5116487;28;20032;-44
2022/07/27 01:45:25;;;;;;;1.45;0.70;;;;;;;25.61;34.95;101750.91;5116247;28;20432;-49
2022/07/27 01:47:54;;;;;;;1.70;0.90;;;;;;;25.57;34.88;101763.09;5097798;28;20466;-45
2022/07/27 01:50:23;;;;;;;3.47;1.35;;;;;;;25.67;35.15;101769.41;5116194;28;20474;-48
2022/07/27 01:52:52;;;;;;;2.33;0.70;;;;;;;25.67;34.58;101766.78;5115747;28;20051;-45
2022/07/27 01:55:20;;;;;;;1.65;0.73;;;;;;;25.55;34.94;101770.06;5115653;28;20395;-43
2022/07/27 01:57:49;;;;;;;4.68;1.00;;;;;;;25.57;34.89;101771.00;5115595;28;20035;-46
2022/07/27 02:00:17;;;;;;;1.63;0.90;;;;;;;25.51;35.12;101764.75;5098106;28;20428;-44
2022/07/27 02:02:47;;;;;;;1.83;0.73;;;;;;;25.47;35.37;101759.41;5115403;28;20050;-54
2022/07/27 02:05:15;;;;;;;1.88;0.80;;;;;;;25.51;35.01;101762.97;5115256;28;20467;-54
2022/07/27 02:07:44;;;;;;;2.85;1.25;;;;;;;25.50;35.39;101768.22;5114905;28;20038;-48
2022/07/27 02:10:12;;;;;;;2.15;0.98;;;;;;;25.46;35.45;101764.66;5115642;28;20038;-45
2022/07/27 02:12:41;;;;;;;1.83;0.75;;;;;;;25.57;34.67;101771.00;5115762;28;20030;-53
2022/07/27 02:15:12;;;;;;;3.40;0.70;;;;;;;25.40;34.98;101762.72;5115171;28;20135;-52
2022/07/27 02:17:41;;;;;;;1.15;0.65;;;;;;;25.44;35.24;101766.38;5115968;28;20478;-46
2022/07/27 02:20:11;;;;;;;3.10;1.00;;;;;;;25.40;35.25;101764.50;5097292;28;20032;-51
2022/07/27 02:22:40;;;;;;;2.38;1.00;;;;;;;25.32;35.57;101769.59;5097658;28;20031;-48
2022/07/27 02:25:09;;;;;;;1.98;0.60;;;;;;;25.34;35.38;101753.00;5115450;28;20466;-45
2022/07/27 02:27:37;;;;;;;2.40;0.90;;;;;;;25.42;35.20;101755.81;5114255;28;20036;-48
2022/07/27 02:30:07;;;;;;;2.05;0.90;;;;;;;25.37;35.36;101752.19;5115291;28;20039;-47
2022/07/27 02:32:35;;;;;;;2.45;0.77;;;;;;;25.31;35.31;101754.69;5115244;28;20027;-47
2022/07/27 02:35:04;;;;;;;1.83;0.65;;;;;;;25.36;35.02;101755.69;5114890;28;20027;-48
2022/07/27 02:37:32;;;;;;;3.80;0.82;;;;;;;25.34;35.16;101754.75;5115112;28;20024;-44
2022/07/27 02:40:00;;;;;;;2.65;1.08;;;;;;;25.30;35.38;101748.56;5114998;28;20028;-53
2022/07/27 02:42:29;;;;;;;3.22;1.00;;;;;;;25.28;35.15;101744.13;5114492;28;20028;-47
2022/07/27 02:44:57;;;;;;;1.75;0.80;;;;;;;25.22;35.14;101751.88;5114954;28;20379;-52
2022/07/27 02:47:26;;;;;;;1.92;0.68;;;;;;;25.17;35.53;101751.78;5114865;28;20391;-51
2022/07/27 02:49:54;;;;;;;4.05;0.77;;;;;;;25.22;35.17;101747.50;5114323;28;20455;-51
2022/07/27 02:52:23;;;;;;;1.05;0.50;;;;;;;25.22;35.27;101750.13;5115035;28;20023;-46
2022/07/27 02:54:51;;;;;;;1.83;0.95;;;;;;;25.19;35.37;101736.94;5096529;28;20039;-51
2022/07/27 02:57:20;;;;;;;3.03;0.73;;;;;;;25.14;35.18;101743.84;5096635;28;20110;-49
2022/07/27 02:59:48;;;;;;;1.05;0.70;;;;;;;25.12;35.13;101738.56;5096428;28;20148;-46
2022/07/27 03:02:17;;;;;;;1.10;0.55;;;;;;;25.13;35.40;101737.72;5114239;28;20102;-49
2022/07/27 03:04:45;;;;;;;2.60;0.88;;;;;;;25.14;35.14;101735.97;5114440;28;20078;-45
2022/07/27 03:07:14;;;;;;;1.80;0.60;;;;;;;25.21;35.36;101731.75;5114676;28;20031;-47
2022/07/27 03:09:42;;;;;;;2.67;0.70;;;;;;;25.19;35.16;101731.69;5113884;28;20028;-47
2022/07/27 03:12:11;;;;;;;2.72;0.85;;;;;;;25.20;35.01;101733.47;5114242;28;20027;-46
2022/07/27 03:14:39;;;;;;;3.83;0.82;;;;;;;25.08;35.05;101726.22;5113855;28;20023;-50
2022/07/27 03:17:08;;;;;;;1.88;0.90;;;;;;;24.99;35.13;101713.78;5113823;28;20051;-47
2022/07/27 03:19:37;;;;;;;1.83;0.70;;;;;;;25.03;35.49;101713.00;5114190;28;20016;-45
2022/07/27 03:22:05;;;;;;;2.10;0.73;;;;;;;24.98;35.27;101706.78;5114051;28;20518;-50
2022/07/27 03:24:34;;;;;;;2.58;0.73;;;;;;;25.00;35.24;101707.69;5114151;28;20035;-47
2022/07/27 03:27:03;;;;;;;3.35;0.93;;;;;;;25.01;35.33;101708.59;5113955;28;20110;-50
2022/07/27 03:29:31;;;;;;;1.20;0.63;;;;;;;25.01;35.12;101708.59;5114363;28;20023;-52
2022/07/27 03:32:00;;;;;;;2.25;0.90;;;;;;;24.92;35.25;101698.78;5114060;28;20023;-45
2022/07/27 03:34:29;;;;;;;1.88;0.90;;;;;;;24.93;35.18;101687.44;5114082;28;20059;-48
2022/07/27 03:36:58;;;;;;;1.58;0.75;;;;;;;24.96;35.09;101710.22;5113708;28;20023;-48
2022/07/27 03:39:27;;;;;;;3.58;1.00;;;;;;;24.83;35.28;101699.47;5113517;28;20095;-48
2022/07/27 03:41:56;;;;;;;2.65;1.08;;;;;;;24.97;35.14;101698.88;5113954;28;20032;-44
2022/07/27 03:44:24;;;;;;;3.17;0.75;;;;;;;24.96;35.19;101702.34;5095669;28;20020;-43
2022/07/27 03:46:53;;;;;;;2.50;0.98;;;;;;;24.87;34.89;101701.31;5113839;28;20051;-48
2022/07/27 03:49:22;;;;;;;2.03;1.35;;;;;;;24.86;34.97;101696.03;5113675;28;20107;-46
2022/07/27 03:51:51;;;;;;;3.72;1.00;;;;;;;24.86;35.05;101704.78;5095685;28;20448;-46
2022/07/27 03:54:19;;;;;;;3.95;0.70;;;;;;;24.84;34.82;101702.97;5113617;28;20023;-52
2022/07/27 03:56:48;;;;;;;1.40;0.70;;;;;;;24.78;35.08;101706.34;5095417;28;20020;-48
2022/07/27 03:59:17;;;;;;;1.77;0.70;;;;;;;24.77;35.16;101701.09;5113656;28;20466;-52
2022/07/27 04:01:45;;;;;;;2.33;0.70;;;;;;;24.80;34.88;101702.03;5113448;28;20035;-51
2022/07/27 04:04:14;;;;;;;2.72;0.90;;;;;;;24.76;35.04;101702.81;5113302;28;20494;-51
2022/07/27 04:06:43;;;;;;;1.80;0.80;;;;;;;24.71;35.41;101699.22;5113385;28;20119;-47
2022/07/27 04:09:11;;;;;;;4.57;1.10;;;;;;;24.60;35.60;101704.19;5095430;28;20459;-46
2022/07/27 04:11:40;;;;;;;3.05;0.65;;;;;;;24.59;35.41;101697.19;5113615;28;20049;-49
2022/07/27 04:14:09;;;;;;;2.85;0.80;;;;;;;24.59;35.46;101697.19;5113229;28;20035;-48
2022/07/27 04:16:37;;;;;;;1.65;0.70;;;;;;;24.62;35.14;101699.88;5113809;28;20024;-54
2022/07/27 04:19:06;;;;;;;2.53;1.02;;;;;;;24.60;35.34;101704.19;5113629;28;20458;-47
2022/07/27 04:21:35;;;;;;;6.13;0.88;;;;;;;24.65;35.18;101707.81;5113377;28;20398;-47
2022/07/27 04:24:04;;;;;;;3.00;1.15;;;;;;;24.67;35.09;101703.47;5113408;28;20466;-54
2022/07/27 04:26:33;;;;;;;1.95;0.85;;;;;;;24.69;35.52;101703.50;5113154;28;20056;-50
2022/07/27 04:29:01;;;;;;;1.70;0.77;;;;;;;24.66;35.38;101704.31;5112840;28;20428;-50
2022/07/27 04:31:30;;;;;;;2.10;0.85;;;;;;;24.69;35.37;101714.00;5114296;28;20047;-55
2022/07/27 04:33:58;;;;;;;2.70;0.70;;;;;;;24.64;35.45;101707.78;5117460;28;20482;-51
2022/07/27 04:36:27;;;;;;;3.55;1.15;;;;;;;24.59;35.36;101712.91;5082842;28;20081;-50
2022/07/27 04:38:56;;;;;;;3.95;1.23;;;;;;;24.54;35.37;101704.06;5099056;28;20028;-47
2022/07/27 04:41:24;;;;;;;6.03;1.30;;;;;;;24.52;35.32;101709.28;5099476;28;20381;-51
2022/07/27 04:43:53;;;;;;;1.52;0.80;;;;;;;24.44;35.42;101687.22;5117069;28;20081;-51
2022/07/27 04:46:21;;;;;;;1.73;0.80;;;;;;;24.45;35.68;101704.72;5117196;28;20028;-55
2022/07/27 04:48:50;;;;;;;2.33;0.65;;;;;;;24.47;35.81;101705.66;5099029;28;20032;-54
2022/07/27 04:51:19;;;;;;;2.17;0.70;;;;;;;24.46;35.77;101718.75;5099314;28;20069;-51
2022/07/27 04:53:48;;;;;;;3.42;1.00;;;;;;;24.48;35.76;101709.19;5117286;28;20098;-46
2022/07/27 04:56:16;;;;;;;1.80;0.60;;;;;;;24.37;35.80;101712.41;5116874;28;20059;-47
2022/07/27 04:58:45;;;;;;;1.02;0.68;;;;;;;24.38;35.75;101708.94;5116983;28;20474;-51
2022/07/27 05:01:13;;;;;;;1.52;0.77;;;;;;;24.36;35.70;101710.66;5116804;28;20032;-50
2022/07/27 05:03:42;;;;;;;4.32;0.90;;;;;;;24.44;35.69;101718.69;5116729;28;20051;-52
2022/07/27 05:06:11;;;;;;;1.80;0.75;;;;;;;24.44;36.10;101726.56;5116594;28;20081;-53
2022/07/27 05:08:39;;;;;;;2.05;0.85;;;;;;;24.39;36.18;101723.84;5116613;28;20024;-47
2022/07/27 05:11:08;;;;;;;1.85;0.60;;;;;;;24.35;35.88;101723.75;5117144;28;20015;-52
2022/07/27 05:13:39;;;;;;;2.08;0.70;;;;;;;24.34;36.25;101727.22;5116942;28;20027;-49
2022/07/27 05:16:09;;;;;;;2.05;0.90;;;;;;;24.40;35.86;101723.00;5116875;28;20028;-48
2022/07/27 05:18:38;;;;;;;4.65;0.80;;;;;;;24.30;36.25;101710.53;5098875;28;20382;-55
2022/07/27 05:21:08;;;;;;;4.05;1.13;;;;;;;24.39;35.75;101721.22;5116781;28;20085;-51
2022/07/27 05:23:37;;;;;;;1.85;0.80;;;;;;;24.48;35.91;101727.53;5116782;28;20048;-50
2022/07/27 05:26:05;;;;;;;1.45;0.70;;;;;;;24.54;35.52;101722.41;5116786;28;20063;-51
2022/07/27 05:28:34;;;;;;;2.15;0.95;;;;;;;24.43;35.67;101715.19;5098172;28;20434;-51
2022/07/27 05:31:02;;;;;;;2.35;0.68;;;;;;;24.54;35.70;101725.03;5116311;28;20015;-48
2022/07/27 05:33:30;;;;;;;2.35;0.98;;;;;;;24.57;35.52;101725.97;5098131;28;20024;-49
2022/07/27 05:35:59;;;;;;;3.03;0.70;;;;;;;24.53;35.91;101724.16;5116253;28;20062;-52
2022/07/27 05:38:27;;;;;;;3.28;0.80;;;;;;;24.52;36.10;101722.38;5115775;28;20080;-49
2022/07/27 05:40:55;;;;;;;2.72;0.88;;;;;;;24.52;35.98;101724.13;5098210;28;20376;-51
2022/07/27 05:43:23;;;;;;;1.45;0.80;;;;;;;24.66;36.12;101727.06;5097015;28;20024;-48
2022/07/27 05:45:52;;;;;;;4.05;0.88;;;;;;;24.63;35.89;101725.25;5116109;28;20455;-50
2022/07/27 05:48:20;;;;;;;4.07;0.95;;;;;;;24.60;36.26;101722.56;5115869;28;20124;-48
2022/07/27 05:50:49;;;;;;;6.03;1.10;;;;;;;24.48;35.97;101720.53;5097545;28;20019;-48
2022/07/27 05:53:17;;;;;;;3.17;0.95;;;;;;;24.69;35.96;101733.25;5097776;28;20032;-46
2022/07/27 05:55:46;;;;;;;3.85;0.93;;;;;;;24.76;36.03;101733.44;5097057;28;20035;-51
2022/07/27 05:58:14;;;;;;;6.35;1.27;;;;;;;24.78;36.03;101732.59;5116108;28;20235;-48
2022/07/27 06:00:43;;;;;;;3.65;0.88;;;;;;;24.68;36.02;101726.22;5116033;28;20442;-52
2022/07/27 06:03:11;;;;;;;4.13;0.93;;;;;;;24.80;35.96;101736.16;5115738;28;20047;-48
2022/07/27 06:05:39;;;;;;;4.75;1.17;;;;;;;24.79;35.92;101726.50;5097629;28;20026;-48
2022/07/27 06:08:08;;;;;;;3.25;1.15;;;;;;;24.86;35.91;101730.13;5115345;28;20023;-46
2022/07/27 06:10:39;;;;;;;9.18;1.10;;;;;;;24.95;36.12;101737.31;5097712;28;20020;-48
2022/07/27 06:13:10;;;;;;;6.03;0.93;;;;;;;25.06;35.92;101727.94;5115672;28;20030;-48
2022/07/27 06:15:39;;;;;;;7.57;0.98;;;;;;;25.06;35.80;101729.69;5115601;28;20114;-49
2022/07/27 06:18:13;;;;;;;8.90;1.40;;;;;;;24.93;36.29;101734.69;5115690;28;20120;-49
2022/07/27 06:20:42;;;;;;;3.88;0.95;;;;;;;24.81;36.38;101716.06;5115423;28;20032;-48
2022/07/27 06:23:10;;;;;;;2.70;1.00;;;;;;;24.87;36.30;101722.31;5115447;28;20038;-52
2022/07/27 06:25:39;;;;;;;5.00;0.90;;;;;;;24.95;36.39;101735.59;5115208;28;20020;-47
2022/07/27 06:28:08;;;;;;;2.75;0.90;;;;;;;24.95;35.98;101732.97;5097220;28;20039;-49
2022/07/27 06:30:36;;;;;;;4.63;1.10;;;;;;;24.99;36.27;101741.78;5115325;28;20024;-48
2022/07/27 06:33:05;;;;;;;4.25;1.42;;;;;;;24.95;36.34;101734.69;5115409;28;20024;-46
2022/07/27 06:35:34;;;;;;;1.25;0.70;;;;;;;24.98;36.23;101737.41;5096838;28;20020;-47
2022/07/27 06:38:03;;;;;;;2.80;0.90;;;;;;;25.03;36.00;101751.50;5097119;28;20463;-53
2022/07/27 06:40:31;;;;;;;4.32;1.20;;;;;;;25.03;35.84;101741.00;5097038;28;20035;-49
2022/07/27 06:43:00;;;;;;;3.70;1.00;;;;;;;24.94;36.26;101732.91;5114921;28;20114;-46
2022/07/27 06:45:29;;;;;;;5.97;1.13;;;;;;;24.87;36.52;101748.56;5115013;28;20016;-47
2022/07/27 06:47:58;;;;;;;2.22;1.02;;;;;;;24.74;37.08;101749.13;5097138;28;20035;-46
2022/07/27 06:50:26;;;;;;;2.75;0.93;;;;;;;24.83;36.68;101751.97;5114737;28;20023;-45
2022/07/27 06:52:55;;;;;;;2.50;0.80;;;;;;;24.88;36.75;101749.44;5114335;28;20031;-51
2022/07/27 06:55:24;;;;;;;4.93;1.05;;;;;;;24.95;36.36;101747.81;5114109;28;20028;-45
2022/07/27 06:57:52;;;;;;;1.85;0.93;;;;;;;24.98;36.75;101746.16;5114466;28;20386;-45
2022/07/27 07:00:21;;;;;;;3.35;1.20;;;;;;;24.93;36.92;101753.06;5114416;28;20031;-51
2022/07/27 07:03:02;;;;;;;3.65;1.20;;;;;;;24.98;36.68;101755.75;5114532;28;20062;-52
2022/07/27 07:05:31;;;;;;;4.20;1.08;;;;;;;24.99;36.91;101758.41;5114216;28;20047;-47
2022/07/27 07:08:01;;;;;;;4.68;1.42;;;;;;;25.02;36.52;101755.00;5114070;28;20106;-48
2022/07/27 07:10:30;;;;;;;5.03;1.20;;;;;;;24.95;36.53;101750.44;5114976;28;20019;-47
2022/07/27 07:13:04;;;;;;;6.82;1.08;;;;;;;24.96;36.65;101760.09;5097080;28;20062;-48
2022/07/27 07:15:34;;;;;;;1.77;0.98;;;;;;;24.95;37.06;101747.81;5114612;28;20039;-48
2022/07/27 07:18:02;;;;;;;2.80;0.88;;;;;;;24.97;36.95;101754.00;5096085;28;20034;-47
2022/07/27 07:20:32;;;;;;;4.18;1.23;;;;;;;24.92;37.20;101764.41;5114718;28;20027;-44
2022/07/27 07:23:01;;;;;;;5.45;1.45;;;;;;;24.96;37.11;101765.34;5114009;28;20051;-53
2022/07/27 07:25:29;;;;;;;3.95;1.20;;;;;;;24.97;37.16;101770.66;5096187;28;20059;-48
2022/07/27 07:28:00;;;;;;;4.20;1.20;;;;;;;25.03;37.20;101769.88;5095862;28;20452;-46
2022/07/27 07:30:30;;;;;;;6.75;1.17;;;;;;;25.09;36.77;101769.13;5096014;28;20028;-47
2022/07/27 07:32:59;;;;;;;3.35;1.10;;;;;;;25.07;36.94;101757.69;5096371;28;20020;-47
2022/07/27 07:35:30;;;;;;;3.83;1.50;;;;;;;25.03;37.22;101765.50;5113991;28;20024;-45
2022/07/27 07:37:59;;;;;;;6.80;1.20;;;;;;;24.94;37.56;101761.78;5113558;28;20051;-52
2022/07/27 07:40:27;;;;;;;5.07;1.13;;;;;;;24.95;37.20;101760.94;5095690;28;20027;-47
2022/07/27 07:42:59;;;;;;;5.18;1.02;;;;;;;24.99;37.49;101768.91;5113903;28;20030;-47
2022/07/27 07:45:29;;;;;;;8.68;1.10;;;;;;;25.02;37.06;101757.63;5114360;28;20401;-48
2022/07/27 07:47:58;;;;;;;2.35;0.82;;;;;;;25.02;37.28;101765.50;5114038;28;20030;-48
2022/07/27 07:50:27;;;;;;;2.97;0.93;;;;;;;25.00;37.13;101762.81;5113632;28;20463;-54
2022/07/27 07:52:55;;;;;;;3.15;0.90;;;;;;;25.02;37.67;101768.13;5113381;28;20120;-46
2022/07/27 07:55:26;;;;;;;11.02;1.42;;;;;;;25.03;37.32;101759.38;5095804;28;20016;-46
2022/07/27 07:57:55;;;;;;;2.67;1.20;;;;;;;25.07;37.70;101766.44;5113812;28;20038;-47
2022/07/27 08:00:24;;;;;;;7.40;1.48;;;;;;;25.06;37.37;101753.31;5114044;28;20081;-46
2022/07/27 08:02:56;;;;;;;9.23;1.50;;;;;;;25.11;37.44;101764.78;5113308;28;20405;-47
2022/07/27 08:05:26;;;;;;;8.60;1.38;;;;;;;25.09;37.97;101766.50;5113545;28;20110;-50
2022/07/27 08:07:54;;;;;;;6.25;1.95;;;;;;;25.09;37.82;101756.88;5112998;28;20390;-50
2022/07/27 08:10:23;;;;;;;5.47;1.73;;;;;;;25.06;37.82;101761.19;5113741;28;20054;-46
2022/07/27 08:12:55;;;;;;;3.63;1.05;;;;;;;25.09;38.06;101758.63;5113305;28;20099;-48
2022/07/27 08:15:24;;;;;;;4.65;1.63;;;;;;;25.10;37.69;101758.63;5113604;28;20077;-47
2022/07/27 08:17:52;;;;;;;6.72;1.20;;;;;;;25.13;37.91;101748.22;5095508;28;20047;-52
2022/07/27 08:20:23;;;;;;;4.97;1.30;;;;;;;25.21;37.53;101752.75;5095721;28;20031;-53
2022/07/27 08:22:51;;;;;;;4.25;1.45;;;;;;;25.22;37.70;101750.13;5113742;28;20076;-50
2022/07/27 08:25:19;;;;;;;5.35;1.20;;;;;;;25.30;37.39;101747.66;5090083;28;20044;-52
2022/07/27 08:27:47;;;;;;;8.52;1.40;;;;;;;25.25;37.74;101736.16;5100736;28;20042;-53
2022/07/27 08:30:15;;;;;;;10.23;1.70;;;;;;;25.29;37.74;101753.78;5100726;28;20118;-51
2022/07/27 08:32:57;;;;;;;7.03;1.40;;;;;;;25.21;37.46;101752.75;5101019;28;20684;-53
2022/07/27 08:35:25;;;;;;;12.15;1.73;;;;;;;25.31;37.65;101754.69;5099820;28;20036;-52
2022/07/27 08:37:54;;;;;;;6.10;1.50;;;;;;;25.34;37.35;101757.38;5100813;28;20148;-53
2022/07/27 08:40:22;;;;;;;5.75;1.45;;;;;;;25.32;37.40;101752.09;5100769;28;20132;-49
2022/07/27 08:42:50;;;;;;;5.35;1.58;;;;;;;25.29;37.36;101746.78;5100065;28;20067;-48
2022/07/27 08:45:19;;;;;;;5.32;1.40;;;;;;;25.32;37.64;101745.97;5099673;28;20032;-52
2022/07/27 08:47:47;;;;;;;8.73;1.48;;;;;;;25.37;37.25;101746.03;5100596;28;20112;-49
2022/07/27 08:50:29;;;;;;;6.03;1.10;;;;;;;25.32;37.14;101746.81;5082099;28;20501;-51
2022/07/27 08:52:58;;;;;;;5.75;1.90;;;;;;;25.35;37.44;101746.03;5100221;28;20027;-52
2022/07/27 08:55:27;;;;;;;7.18;1.17;;;;;;;25.32;37.16;101740.69;5099979;28;20032;-48
2022/07/27 08:57:54;;;;;;;4.78;1.45;;;;;;;25.45;37.28;101749.75;5081933;28;20031;-48
2022/07/27 09:00:23;;;;;;;12.27;1.50;;;;;;;25.34;37.24;101739.88;5100024;28;20031;-49
2022/07/27 09:02:50;;;;;;;7.90;1.83;;;;;;;25.21;37.67;101745.75;5100130;28;20047;-49
2022/07/27 09:05:17;;;;;;;3.25;1.15;;;;;;;25.29;37.37;101745.88;5081321;28;20422;-53
2022/07/27 09:07:45;;;;;;;6.28;1.25;;;;;;;25.23;37.49;101738.78;5100456;28;20038;-46
2022/07/27 09:10:30;;;;;;;6.20;1.67;;;;;;;25.32;37.05;101745.97;5099917;28;20040;-50
2022/07/27 09:12:59;;;;;;;5.43;1.50;;;;;;;25.35;37.13;101738.16;5082179;28;20053;-52
2022/07/27 09:15:28;;;;;;;5.18;1.63;;;;;;;25.36;36.73;101729.41;5080811;28;20067;-48
2022/07/27 09:17:56;;;;;;;2.60;1.00;;;;;;;25.43;36.77;101733.94;5103037;28;20094;-52
2022/07/27 09:20:23;;;;;;;6.10;1.30;;;;;;;25.47;36.88;101724.41;5086023;28;20461;-54
2022/07/27 09:22:53;;;;;;;7.40;1.35;;;;;;;25.52;36.60;101730.59;5103677;28;20055;-51
2022/07/27 09:25:25;;;;;;;7.80;1.60;;;;;;;25.52;36.76;101729.72;5102713;28;20061;-52
2022/07/27 09:27:55;;;;;;;6.07;1.20;;;;;;;25.44;37.33;101735.72;5103806;28;20035;-54
2022/07/27 09:30:23;;;;;;;3.90;1.52;;;;;;;25.55;37.18;101728.03;5103132;28;20558;-51
2022/07/27 09:32:55;;;;;;;6.18;1.70;;;;;;;25.73;36.69;101731.84;5103855;28;20122;-55
2022/07/27 09:35:28;;;;;;;10.75;1.60;;;;;;;25.74;36.74;101731.00;5103102;28;20038;-51
2022/07/27 09:38:16;;;;;;;4.32;1.20;;;;;;;25.71;36.44;101726.59;5104196;28;20085;-51
2022/07/27 09:40:45;;;;;;;4.07;1.15;;;;;;;25.74;36.50;101731.00;5085656;28;20036;-45
2022/07/27 09:43:13;;;;;;;6.45;1.60;;;;;;;25.79;36.35;101727.59;5103623;28;20123;-51
2022/07/27 09:45:42;;;;;;;6.22;1.23;;;;;;;25.99;36.14;101721.78;5084863;28;20035;-55
2022/07/27 09:48:12;;;;;;;3.45;1.10;;;;;;;25.90;36.38;101719.91;5085680;28;20043;-55
2022/07/27 09:50:42;;;;;;;5.35;1.42;;;;;;;25.93;36.59;101724.31;5086399;28;20084;-53
2022/07/27 09:53:15;;;;;;;2.95;1.13;;;;;;;26.04;36.28;101719.22;5102776;28;20490;-45
2022/07/27 09:55:44;;;;;;;5.53;1.30;;;;;;;26.19;35.93;101702.84;5102716;28;20089;-45
2022/07/27 09:58:12;;;;;;;3.65;1.30;;;;;;;26.09;35.96;101710.53;5085483;28;20119;-45
2022/07/27 10:00:40;;;;;;;4.53;1.08;;;;;;;26.10;36.07;101703.56;5103212;28;20031;-44
2022/07/27 10:03:07;;;;;;;4.97;1.48;;;;;;;26.17;36.05;101700.19;5102915;28;20048;-46
2022/07/27 10:05:36;;;;;;;3.95;1.27;;;;;;;26.19;35.99;101693.19;5084310;28;20030;-48
2022/07/27 10:08:04;;;;;;;9.98;1.40;;;;;;;26.29;35.73;101696.84;5103730;28;20555;-46
2022/07/27 10:10:34;;;;;;;2.95;1.23;;;;;;;26.28;35.42;101696.84;5067944;28;20040;-44
2022/07/27 10:13:01;;;;;;;6.38;1.67;;;;;;;26.29;35.73;101691.59;5102663;28;20038;-51
2022/07/27 10:15:30;;;;;;;6.97;1.23;;;;;;;26.23;36.12;101689.75;5101762;28;20031;-46
2022/07/27 10:18:08;;;;;;;4.85;1.30;;;;;;;26.25;35.53;101684.50;5084576;28;20118;-47
2022/07/27 10:20:41;;;;;;;6.50;1.63;;;;;;;26.31;35.62;101689.88;5085170;28;20032;-44
2022/07/27 10:23:08;;;;;;;6.90;1.75;;;;;;;26.45;34.97;101686.56;5103335;28;20054;-54
2022/07/27 10:25:36;;;;;;;8.15;1.52;;;;;;;26.49;34.16;101686.59;5101549;28;20036;-44
2022/07/27 10:28:16;;;;;;;3.40;1.52;;;;;;;26.40;34.45;101691.75;5103483;28;20036;-47
2022/07/27 10:30:44;;;;;;;4.47;1.83;;;;;;;26.28;34.28;101689.81;5102052;28;20356;-47
2022/07/27 10:33:14;;;;;;;8.55;1.88;;;;;;;26.27;34.14;101690.69;5102592;28;20117;-49
2022/07/27 10:35:43;;;;;;;5.35;1.38;;;;;;;26.31;34.07;101684.63;5083567;28;20085;-44
2022/07/27 10:38:17;;;;;;;4.25;1.70;;;;;;;26.49;34.18;101685.75;5102528;28;20908;-50
2022/07/27 10:40:45;;;;;;;5.43;1.47;;;;;;;26.46;34.16;101686.59;5102815;28;20110;-48
2022/07/27 10:43:19;;;;;;;4.25;1.58;;;;;;;26.42;34.02;101682.16;5101896;28;20065;-47
2022/07/27 10:45:50;;;;;;;5.50;1.88;;;;;;;26.42;33.53;101682.16;5101423;28;20047;-48
2022/07/27 10:48:38;;;;;;;2.97;1.45;;;;;;;26.41;33.79;101680.38;5084188;28;20050;-47
2022/07/27 10:51:07;;;;;;;2.75;1.40;;;;;;;26.46;33.91;101680.44;5097186;28;20039;-46
2022/07/27 10:53:40;;;;;;;5.82;1.95;;;;;;;26.50;34.16;101685.75;5102941;28;20032;-48
2022/07/27 10:56:09;;;;;;;5.85;1.95;;;;;;;26.48;33.75;101676.94;5100347;28;20432;-49
2022/07/27 10:58:37;;;;;;;4.00;1.95;;;;;;;26.45;33.53;101678.66;5084132;28;20027;-47
2022/07/27 11:01:06;;;;;;;2.63;1.30;;;;;;;26.44;33.40;101685.69;5102560;28;20035;-49
2022/07/27 11:03:37;;;;;;;3.15;1.73;;;;;;;26.37;33.41;101674.19;5102284;28;20075;-49
2022/07/27 11:06:11;;;;;;;6.45;1.75;;;;;;;26.29;32.89;101669.69;5101095;28;20027;-48
2022/07/27 11:08:43;;;;;;;5.95;1.40;;;;;;;26.36;33.66;101675.06;5101964;28;20427;-45
2022/07/27 11:11:15;;;;;;;2.67;1.35;;;;;;;26.48;33.13;101676.94;5102347;28;20509;-51
2022/07/27 11:13:43;;;;;;;6.53;1.70;;;;;;;26.52;33.35;101672.63;5102426;28;20925;-45
2022/07/27 11:16:14;;;;;;;3.13;1.10;;;;;;;26.45;32.74;101665.50;5101928;28;20873;-44
2022/07/27 11:18:43;;;;;;;4.30;1.70;;;;;;;26.43;32.95;101649.72;5102071;28;20042;-48
2022/07/27 11:21:19;;;;;;;3.42;1.40;;;;;;;26.52;32.76;101660.34;5082829;28;20343;-47
2022/07/27 11:23:50;;;;;;;4.40;1.42;;;;;;;26.53;33.06;101667.38;5102195;28;20027;-44
2022/07/27 11:26:19;;;;;;;3.42;1.40;;;;;;;26.48;32.78;101657.66;5083398;28;20028;-45
2022/07/27 11:28:48;;;;;;;5.28;1.00;;;;;;;26.46;32.75;101655.03;5101453;28;20490;-44
2022/07/27 11:31:17;;;;;;;4.47;1.33;;;;;;;26.52;32.58;101647.19;5102271;28;20414;-54
2022/07/27 11:34:04;;;;;;;8.15;1.67;;;;;;;26.57;32.46;101652.50;5102739;28;20111;-44